createdAt,value
2022-12-03T00:03:02.949Z,92.23
2022-12-03T00:08:05.002Z,91.72
2022-12-03T00:13:06.718Z,91.56
2022-12-03T00:18:08.416Z,91.64
2022-12-03T00:23:10.091Z,91.96
2022-12-03T00:28:11.805Z,92.01
2022-12-03T00:33:13.490Z,91.71
2022-12-03T00:38:15.514Z,91.79
2022-12-03T00:43:17.304Z,91.79
2022-12-03T00:48:19.119Z,91.61
2022-12-03T00:53:20.821Z,91.80
2022-12-03T00:58:22.455Z,91.72
2022-12-03T01:03:24.285Z,91.88
2022-12-03T01:08:26.035Z,91.67
2022-12-03T01:13:27.808Z,91.52
2022-12-03T01:18:29.486Z,91.74
2022-12-03T01:23:31.169Z,91.72
2022-12-03T01:28:32.950Z,91.78
2022-12-03T01:33:34.612Z,91.54
2022-12-03T01:38:36.352Z,91.27
2022-12-03T01:43:38.366Z,91.25
2022-12-03T01:48:40.280Z,91.43
2022-12-03T01:53:43.181Z,91.71
2022-12-03T01:58:46.329Z,91.95
2022-12-03T02:03:48.064Z,91.73
2022-12-03T02:08:49.916Z,91.76
2022-12-03T02:13:55.493Z,91.78
2022-12-03T02:18:58.828Z,91.57
2022-12-03T02:24:19.334Z,91.35
2022-12-03T02:29:22.111Z,90.82
2022-12-03T02:34:43.124Z,91.33
2022-12-03T02:39:50.812Z,91.52
2022-12-03T02:44:52.940Z,91.49
2022-12-03T02:49:55.787Z,91.93
2022-12-03T02:54:58.233Z,91.65
2022-12-03T03:00:00.082Z,91.37
2022-12-03T03:05:02.433Z,91.56
2022-12-03T03:10:06.181Z,91.21
2022-12-03T03:15:09.603Z,90.88
2022-12-03T03:20:12.474Z,91.12
2022-12-03T03:25:18.542Z,91.39
2022-12-03T03:30:20.348Z,91.53
2022-12-03T03:35:24.416Z,91.67
2022-12-03T03:40:26.900Z,92.19
2022-12-03T03:45:29.797Z,91.83
2022-12-03T03:50:32.524Z,91.84
2022-12-03T03:55:34.616Z,92.38
2022-12-03T04:00:36.672Z,92.24
2022-12-03T04:05:38.649Z,92.32
2022-12-03T04:10:58.937Z,92.11
2022-12-03T04:16:00.711Z,92.48
2022-12-03T04:21:20.981Z,92.13
2022-12-03T04:26:41.275Z,91.98
2022-12-03T04:32:03.293Z,92.13
2022-12-03T04:37:05.447Z,92.20
2022-12-03T04:42:07.611Z,92.35
2022-12-03T04:47:12.524Z,92.61
2022-12-03T04:52:16.572Z,92.53
2022-12-03T04:57:18.329Z,92.75
2022-12-03T05:02:20.116Z,92.94
2022-12-03T05:07:21.851Z,92.79
2022-12-03T05:12:23.518Z,92.41
2022-12-03T05:17:25.420Z,93.00
2022-12-03T05:22:27.113Z,92.64
2022-12-03T05:27:28.835Z,92.61
2022-12-03T05:32:30.569Z,92.44
2022-12-03T05:37:32.258Z,92.20
2022-12-03T05:42:52.685Z,92.48
2022-12-03T05:47:56.036Z,92.29
2022-12-03T05:52:58.375Z,92.26
2022-12-03T05:58:00.175Z,91.79
2022-12-03T06:03:02.037Z,91.52
2022-12-03T06:08:04.039Z,92.21
2022-12-03T06:13:05.845Z,92.13
2022-12-03T06:18:07.557Z,92.48
2022-12-03T06:23:24.403Z,92.11
2022-12-03T06:28:26.089Z,92.47
2022-12-03T06:33:27.819Z,92.44
2022-12-03T06:38:29.499Z,92.33
2022-12-03T06:43:31.315Z,92.34
2022-12-03T06:48:32.954Z,92.07
2022-12-03T06:53:34.736Z,92.25
2022-12-03T06:58:36.458Z,92.51
2022-12-03T07:03:38.264Z,92.60
2022-12-03T07:08:40.292Z,92.13
2022-12-03T07:13:41.947Z,91.42
2022-12-03T07:18:43.676Z,91.78
2022-12-03T07:23:45.347Z,91.71
2022-12-03T07:28:48.262Z,91.57
2022-12-03T07:33:50.100Z,91.71
2022-12-03T07:38:52.020Z,91.59
2022-12-03T07:43:53.747Z,91.45
2022-12-03T07:48:55.566Z,91.54
2022-12-03T07:53:57.251Z,91.29
2022-12-03T07:58:58.917Z,91.37
2022-12-03T08:04:00.644Z,91.27
2022-12-03T08:09:02.416Z,91.02
2022-12-03T08:14:14.938Z,91.35
2022-12-03T08:19:18.076Z,91.50
2022-12-03T08:24:21.352Z,91.55
2022-12-03T08:29:24.521Z,91.39
2022-12-03T08:34:28.237Z,91.54
2022-12-03T08:39:37.618Z,91.54
2022-12-03T08:44:41.121Z,90.95
2022-12-03T08:49:48.881Z,91.33
2022-12-03T08:54:53.716Z,91.26
2022-12-03T09:00:23.409Z,91.50
2022-12-03T09:05:34.181Z,91.15
2022-12-03T09:10:36.461Z,91.18
2022-12-03T09:15:38.268Z,91.21
2022-12-03T09:20:41.248Z,91.07
2022-12-03T09:25:42.972Z,91.26
2022-12-03T09:30:44.692Z,91.28
2022-12-03T09:35:46.383Z,91.48
2022-12-03T09:40:48.142Z,91.46
2022-12-03T09:45:50.156Z,91.04
2022-12-03T09:50:52.536Z,91.58
2022-12-03T09:55:57.872Z,91.53
2022-12-03T10:00:59.572Z,91.17
2022-12-03T10:06:01.260Z,91.23
2022-12-03T10:11:03.517Z,91.22
2022-12-03T10:16:08.910Z,90.73
2022-12-03T10:21:37.444Z,90.86
2022-12-03T10:26:43.440Z,90.84
2022-12-03T10:31:45.721Z,90.64
2022-12-03T10:36:47.578Z,91.02
2022-12-03T10:41:49.322Z,91.21
2022-12-03T10:47:11.591Z,91.21
2022-12-03T10:52:25.627Z,91.16
2022-12-03T10:57:28.171Z,91.30
2022-12-03T11:02:29.881Z,91.57
2022-12-03T11:07:32.146Z,91.25
2022-12-03T11:12:35.567Z,91.53
2022-12-03T11:17:52.912Z,91.51
2022-12-03T11:22:56.340Z,91.52
2022-12-03T11:28:10.190Z,91.65
2022-12-03T11:33:32.680Z,91.60
2022-12-03T11:38:37.520Z,91.78
2022-12-03T11:43:57.296Z,91.50
2022-12-03T11:49:00.030Z,91.17
2022-12-03T11:54:01.950Z,91.19
2022-12-03T11:59:11.767Z,91.23
2022-12-03T12:04:29.190Z,91.39
2022-12-03T12:09:53.222Z,91.30
2022-12-03T12:14:55.872Z,91.50
2022-12-03T12:20:27.083Z,91.49
2022-12-03T12:25:40.903Z,91.63
2022-12-03T12:30:42.914Z,91.44
2022-12-03T12:35:44.690Z,91.63
2022-12-03T12:40:49.301Z,91.60
2022-12-03T12:45:56.788Z,91.82
2022-12-03T12:51:01.418Z,91.82
2022-12-03T12:56:14.083Z,91.80
2022-12-03T13:01:28.524Z,91.65
2022-12-03T13:06:32.102Z,91.26
2022-12-03T13:11:39.513Z,91.36
2022-12-03T13:16:41.837Z,91.28
2022-12-03T13:21:44.735Z,91.20
2022-12-03T13:26:46.573Z,91.29
2022-12-03T13:32:01.241Z,90.71
2022-12-03T13:37:12.218Z,90.69
2022-12-03T13:42:39.141Z,90.74
2022-12-03T13:47:43.329Z,91.04
2022-12-03T13:52:45.108Z,91.03
2022-12-03T13:57:46.876Z,91.08
2022-12-03T14:02:49.138Z,91.38
2022-12-03T14:07:51.058Z,91.48
2022-12-03T14:12:52.833Z,91.55
2022-12-03T14:17:54.602Z,91.59
2022-12-03T14:22:59.304Z,91.71
2022-12-03T14:28:01.449Z,91.57
2022-12-03T14:33:04.891Z,91.67
2022-12-03T14:38:06.651Z,91.51
2022-12-03T14:43:08.294Z,91.26
2022-12-03T14:48:10.010Z,91.42
2022-12-03T14:53:11.805Z,91.47
2022-12-03T14:58:13.613Z,91.24
2022-12-03T15:03:15.298Z,91.15
2022-12-03T15:08:17.389Z,90.94
2022-12-03T15:13:19.365Z,91.13
2022-12-03T15:18:21.061Z,91.43
2022-12-03T15:23:22.850Z,91.47
2022-12-03T15:28:24.493Z,91.40
2022-12-03T15:33:26.253Z,91.51
2022-12-03T15:38:27.973Z,91.53
2022-12-03T15:43:29.596Z,91.85
2022-12-03T15:48:31.518Z,91.42
2022-12-03T15:53:33.268Z,91.76
2022-12-03T15:58:35.165Z,91.65
2022-12-03T16:03:37.082Z,91.49
2022-12-03T16:08:38.792Z,91.41
2022-12-03T16:13:40.557Z,91.84
2022-12-03T16:18:42.244Z,91.70
2022-12-03T16:23:43.962Z,91.92
2022-12-03T16:28:45.591Z,91.80
2022-12-03T16:33:47.949Z,92.04
2022-12-03T16:38:49.825Z,92.16
2022-12-03T16:43:51.740Z,92.33
2022-12-03T16:48:55.564Z,92.17
2022-12-03T16:53:59.543Z,92.34
2022-12-03T16:59:01.265Z,91.91
2022-12-03T17:04:02.949Z,91.88
2022-12-03T17:09:04.721Z,91.79
2022-12-03T17:14:06.398Z,91.76
2022-12-03T17:19:08.431Z,91.68
2022-12-03T17:24:10.243Z,91.74
2022-12-03T17:29:12.157Z,91.78
2022-12-03T17:34:13.832Z,91.44
2022-12-03T17:39:15.416Z,91.23
2022-12-03T17:44:21.036Z,91.62
2022-12-03T17:49:28.301Z,91.60
2022-12-03T17:54:49.368Z,91.62
2022-12-03T17:59:54.790Z,91.55
2022-12-03T18:04:56.757Z,91.88
2022-12-03T18:09:58.521Z,91.83
2022-12-03T18:15:00.251Z,91.78
2022-12-03T18:20:02.179Z,91.84
2022-12-03T18:25:04.839Z,91.39
2022-12-03T18:30:07.098Z,91.16
2022-12-03T18:35:09.168Z,91.11
2022-12-03T18:40:23.819Z,91.27
2022-12-03T18:45:25.530Z,91.33
2022-12-03T18:50:27.220Z,91.15
2022-12-03T18:55:33.640Z,91.27
2022-12-03T19:00:35.850Z,91.19
2022-12-03T19:05:37.805Z,91.06
2022-12-03T19:10:39.699Z,91.25
2022-12-03T19:15:41.405Z,91.72
2022-12-03T19:20:43.179Z,91.61
2022-12-03T19:26:04.496Z,91.76
2022-12-03T19:31:10.375Z,91.71
2022-12-03T19:36:29.601Z,91.78
2022-12-03T19:41:31.440Z,91.87
2022-12-03T19:46:33.170Z,91.79
2022-12-03T19:51:35.816Z,91.74
2022-12-03T19:56:38.249Z,92.32
2022-12-03T20:01:40.825Z,92.59
2022-12-03T20:06:42.730Z,92.61
2022-12-03T20:11:45.805Z,92.61
2022-12-03T20:16:48.390Z,92.56
2022-12-03T20:21:50.109Z,92.64
2022-12-03T20:26:51.901Z,92.63
2022-12-03T20:31:53.669Z,92.79
2022-12-03T20:36:55.548Z,93.04
2022-12-03T20:41:57.395Z,93.23
2022-12-03T20:46:59.100Z,93.07
2022-12-03T20:52:04.237Z,93.19
2022-12-03T20:57:06.409Z,93.47
2022-12-03T21:02:09.536Z,93.00
2022-12-03T21:07:11.337Z,93.50
2022-12-03T21:12:13.033Z,93.20
2022-12-03T21:17:14.827Z,93.18
2022-12-03T21:22:16.548Z,93.47
2022-12-03T21:27:21.856Z,93.33
2022-12-03T21:32:23.705Z,93.27
2022-12-03T21:37:25.512Z,93.69
2022-12-03T21:42:36.204Z,93.62
2022-12-03T21:47:39.120Z,93.82
2022-12-03T21:52:41.100Z,94.05
2022-12-03T21:57:42.863Z,94.27
2022-12-03T22:02:44.902Z,94.09
2022-12-03T22:07:46.719Z,94.23
2022-12-03T22:12:48.980Z,94.76
2022-12-03T22:17:50.808Z,94.60
2022-12-03T22:22:52.605Z,94.26
2022-12-03T22:27:54.332Z,94.74
2022-12-03T22:32:55.991Z,94.79
2022-12-03T22:37:58.259Z,94.43
2022-12-03T22:42:59.952Z,94.23
2022-12-03T22:48:02.825Z,94.50
2022-12-03T22:53:04.650Z,94.60
2022-12-03T22:58:07.184Z,94.74
2022-12-03T23:03:08.966Z,94.78
2022-12-03T23:08:13.511Z,94.77
2022-12-03T23:13:16.474Z,94.80
2022-12-03T23:18:18.941Z,94.78
2022-12-03T23:23:22.498Z,94.93
2022-12-03T23:28:24.900Z,94.93
2022-12-03T23:33:27.531Z,94.89
2022-12-03T23:38:29.212Z,94.80
2022-12-03T23:43:30.957Z,94.47
2022-12-03T23:48:33.127Z,94.68
2022-12-03T23:53:35.818Z,94.75
2022-12-03T23:58:38.601Z,94.71
